Aérodrome :
LOGIN :

S'inscrire | Disclaimer

   EN    FR    IT 

 










Légende :    VFR   VFR Marginal   IFR   IFR Intensif   IFR Très Intensif
Visi : 
Plafond : 
>= 8 km
>= 3000ft
5 à 8 km
1000 à 3000 ft
1500m à 5 km
500 à 1000 ft
800 à 1500m
200 à 500 ft
< 800m
< 200 ft
Symboles :   Orages  Brouillard  Fortes neiges  Fortes précipitations  Vent > 20 kt
SIGMETs :   Divers  Orages  Givrage  Turbulence  Onde Orograph.  Cendres Volcan.







- Altitude de l'aérodrome : 200 ft


EBBL - Klein Brogel AB

DERNIER METAR :
  • 222125Z AUTO 02003KT 9999 BKN080/// BKN110/// 15/13 Q1015 BLU

METARs EXPIRÉS :
  • 222055Z AUTO 36003KT 9999 OVC086/// 15/13 Q1015 BLU
  • 222025Z AUTO 02005KT 9999 OVC085/// 15/13 Q1015 BLU
  • 221955Z AUTO 04009KT 9999 FEW043/// OVC075/// 16/14 Q1015 BLU
  • 221925Z AUTO 05006KT 9999 OVC077/// 16/14 Q1015 BLU
  • 221855Z AUTO 03003KT 9999 BKN071/// 15/14 Q1014 BLU

TAF TAF EBBL
Valide du 22 à 13h jusqu'au 22 à 22h UTC


221141Z 2213/2222 05006KT 9999 FEW040TCU SCT230
TEMPO 2213/2222 3000 SHRA SCT040TCU
PROB30
TEMPO 2215/2222 33005G15KT 2000 TSRAGR SCT030CB
Pas de NOTAMs connus pour ce terrain.



MET'MAP, la Météo Aéronautique d'un coup d'oeil ! - Copyright ORBIFLY Décembre 2007 - Disclaimer

ORBIFLY MET'MAP TEAM :

Programmation & Développement : Alexandra Zaïnal
Conception & Développement : Baudouin d'Aumeries
Co-Programmation & Développement : Marc-Olivier Méhu
Soutien technique & logistique : Manuel Goepfert

Contact : metmap@orbifly.com




SOURCES & CREDITS :

   NOAA